createdAt,value
2022-12-05T00:01:53.802Z,15.63
2022-12-05T00:04:23.221Z,14.32
2022-12-05T00:06:52.215Z,13.40
2022-12-05T00:09:28.313Z,12.68
2022-12-05T00:11:57.675Z,13.95
2022-12-05T00:14:24.449Z,13.52
2022-12-05T00:16:52.056Z,14.18
2022-12-05T00:19:19.358Z,11.90
2022-12-05T00:24:17.368Z,10.20
2022-12-05T00:26:48.741Z,15.10
2022-12-05T00:29:17.142Z,14.45
2022-12-05T00:31:44.604Z,13.68
2022-12-05T00:34:13.331Z,13.65
2022-12-05T00:36:46.187Z,12.98
2022-12-05T00:39:17.502Z,13.18
2022-12-05T00:41:44.329Z,14.13
2022-12-05T00:44:13.654Z,15.43
2022-12-05T00:46:49.942Z,13.13
2022-12-05T00:49:28.403Z,14.70
2022-12-05T00:51:54.917Z,15.13
2022-12-05T00:54:23.989Z,12.10
2022-12-05T00:56:53.020Z,12.30
2022-12-05T00:59:22.003Z,14.93
2022-12-05T01:01:52.447Z,13.18
2022-12-05T01:04:24.860Z,13.98
2022-12-05T01:06:58.961Z,16.70
2022-12-05T01:09:28.156Z,14.75
2022-12-05T01:11:54.825Z,14.40
2022-12-05T01:14:27.149Z,12.07
2022-12-05T01:16:57.739Z,15.63
2022-12-05T01:19:28.741Z,15.43
2022-12-05T01:21:59.035Z,16.48
2022-12-05T01:24:28.128Z,15.68
2022-12-05T01:26:54.903Z,16.67
2022-12-05T01:29:24.879Z,12.80
2022-12-05T01:31:54.248Z,12.95
2022-12-05T01:34:24.094Z,12.75
2022-12-05T01:36:52.034Z,16.67
2022-12-05T01:39:18.865Z,13.35
2022-12-05T01:41:48.857Z,12.10
2022-12-05T01:44:17.121Z,14.82
2022-12-05T01:46:49.405Z,16.27
2022-12-05T01:49:24.112Z,12.98
2022-12-05T01:51:55.896Z,14.88
2022-12-05T01:54:24.873Z,14.68
2022-12-05T01:57:07.889Z,13.10
2022-12-05T01:59:43.009Z,17.48
2022-12-05T02:02:12.977Z,16.08
2022-12-05T02:04:52.744Z,17.30
2022-12-05T02:07:19.886Z,16.27
2022-12-05T02:09:52.095Z,17.67
2022-12-05T02:12:23.064Z,16.33
2022-12-05T02:15:08.128Z,17.50
2022-12-05T02:17:58.159Z,21.02
2022-12-05T02:20:47.967Z,17.88
2022-12-05T02:23:37.386Z,20.42
2022-12-05T02:26:18.387Z,20.70
2022-12-05T02:29:19.174Z,19.67
2022-12-05T02:31:52.585Z,18.35
2022-12-05T02:34:43.798Z,22.48
2022-12-05T02:37:53.088Z,23.27
2022-12-05T02:40:37.599Z,19.60
2022-12-05T02:43:18.677Z,19.83
2022-12-05T02:45:53.187Z,18.95
2022-12-05T02:48:21.460Z,18.40
2022-12-05T02:50:53.186Z,23.05
2022-12-05T02:53:23.424Z,20.40
2022-12-05T02:55:51.736Z,22.73
2022-12-05T02:58:24.402Z,22.85
2022-12-05T03:00:54.353Z,17.88
2022-12-05T03:03:23.973Z,20.00
2022-12-05T03:06:02.965Z,19.23
2022-12-05T03:08:48.273Z,17.17
2022-12-05T03:11:16.413Z,19.20
2022-12-05T03:13:57.478Z,19.90
2022-12-05T03:16:32.880Z,17.80
2022-12-05T03:19:07.744Z,17.23
2022-12-05T03:21:47.740Z,17.92
2022-12-05T03:24:17.189Z,22.33
2022-12-05T03:27:12.545Z,18.23
2022-12-05T03:30:07.214Z,17.33
2022-12-05T03:32:38.637Z,14.95
2022-12-05T03:35:32.768Z,21.63
2022-12-05T03:38:13.153Z,17.02
2022-12-05T03:40:53.319Z,18.33
2022-12-05T03:43:29.027Z,21.65
2022-12-05T03:46:04.023Z,19.90
2022-12-05T03:48:38.670Z,19.75
2022-12-05T03:51:11.823Z,19.85
2022-12-05T03:53:47.880Z,20.73
2022-12-05T03:56:26.843Z,21.73
2022-12-05T03:59:09.518Z,21.65
2022-12-05T04:01:39.699Z,21.73
2022-12-05T04:04:18.352Z,22.63
2022-12-05T04:06:52.652Z,23.58
2022-12-05T04:09:32.896Z,23.20
2022-12-05T04:12:18.855Z,20.23
2022-12-05T04:14:52.192Z,24.75
2022-12-05T04:17:24.777Z,25.73
2022-12-05T04:20:33.249Z,21.20
2022-12-05T04:23:02.995Z,19.05
2022-12-05T04:25:38.661Z,24.17
2022-12-05T04:28:39.751Z,26.25
2022-12-05T04:31:07.974Z,21.17
2022-12-05T04:34:08.172Z,23.17
2022-12-05T04:37:08.015Z,25.35
2022-12-05T04:39:48.182Z,25.58
2022-12-05T04:42:23.295Z,22.15
2022-12-05T04:44:54.319Z,24.35
2022-12-05T04:47:28.287Z,22.88
2022-12-05T04:49:59.122Z,25.73
2022-12-05T04:52:28.893Z,25.00
2022-12-05T04:55:21.010Z,24.45
2022-12-05T04:58:13.450Z,23.52
2022-12-05T05:00:52.255Z,21.88
2022-12-05T05:03:24.029Z,18.25
2022-12-05T05:05:54.340Z,23.02
2022-12-05T05:08:24.642Z,17.88
2022-12-05T05:11:28.091Z,23.45
2022-12-05T05:13:55.004Z,20.42
2022-12-05T05:16:38.498Z,21.38
2022-12-05T05:19:08.207Z,18.75
2022-12-05T05:21:38.318Z,19.55
2022-12-05T05:24:07.333Z,22.85
2022-12-05T05:26:37.393Z,20.58
2022-12-05T05:29:04.406Z,19.80
2022-12-05T05:31:32.815Z,23.75
2022-12-05T05:34:03.225Z,21.52
2022-12-05T05:36:34.893Z,21.65
2022-12-05T05:39:06.845Z,22.13
2022-12-05T05:41:37.698Z,22.30
2022-12-05T05:44:05.015Z,20.80
2022-12-05T05:46:34.936Z,22.67
2022-12-05T05:49:05.328Z,21.20
2022-12-05T05:51:33.577Z,21.52
2022-12-05T05:54:02.011Z,24.65
2022-12-05T05:56:29.751Z,22.42
2022-12-05T05:59:02.999Z,24.48
2022-12-05T06:01:31.607Z,23.83
2022-12-05T06:03:59.093Z,23.00
2022-12-05T06:06:28.203Z,20.77
2022-12-05T06:08:56.054Z,23.48
2022-12-05T06:11:28.353Z,24.50
2022-12-05T06:13:58.434Z,22.30
2022-12-05T06:16:26.828Z,25.17
2022-12-05T06:18:54.099Z,24.33
2022-12-05T06:21:24.323Z,22.60
2022-12-05T06:23:51.549Z,22.85
2022-12-05T06:26:21.550Z,20.13
2022-12-05T06:28:48.622Z,21.70
2022-12-05T06:31:21.818Z,23.30
2022-12-05T06:33:48.956Z,23.05
2022-12-05T06:38:46.580Z,22.73
2022-12-05T06:41:19.941Z,25.08
2022-12-05T06:43:49.078Z,18.90
2022-12-05T06:46:17.500Z,25.40
2022-12-05T06:48:44.571Z,24.15
2022-12-05T06:51:17.654Z,23.88
2022-12-05T06:53:44.823Z,25.60
2022-12-05T06:58:44.805Z,25.13
2022-12-05T07:01:32.838Z,25.50
2022-12-05T07:03:59.718Z,24.83
2022-12-05T07:06:29.994Z,22.02
2022-12-05T07:09:01.952Z,21.80
2022-12-05T07:11:29.469Z,24.40
2022-12-05T07:14:24.879Z,25.02
2022-12-05T07:17:28.365Z,25.58
2022-12-05T07:20:06.784Z,26.42
2022-12-05T07:23:09.803Z,25.95
2022-12-05T07:25:47.522Z,24.75
2022-12-05T07:28:17.532Z,24.55
2022-12-05T07:30:53.667Z,26.25
2022-12-05T07:47:48.673Z,29.08
2022-12-05T07:50:18.045Z,28.42
2022-12-05T07:52:44.948Z,28.17
2022-12-05T07:55:23.230Z,27.70
2022-12-05T07:57:52.207Z,32.72
2022-12-05T08:01:23.244Z,28.63
2022-12-05T08:03:54.617Z,25.83
2022-12-05T08:06:39.366Z,27.95
2022-12-05T08:09:08.687Z,25.65
2022-12-05T08:11:38.800Z,30.77
2022-12-05T08:14:08.497Z,31.95
2022-12-05T08:16:39.080Z,28.30
2022-12-05T08:19:12.393Z,30.08
2022-12-05T08:21:39.887Z,26.73
2022-12-05T08:24:10.940Z,24.52
2022-12-05T08:26:39.532Z,22.83
2022-12-05T08:29:09.672Z,22.23
2022-12-05T08:31:43.179Z,22.58
2022-12-05T08:34:13.221Z,23.40
2022-12-05T08:36:52.567Z,24.10
2022-12-05T08:39:19.951Z,21.67
2022-12-05T08:41:49.585Z,21.25
2022-12-05T08:44:19.601Z,21.15
2022-12-05T08:46:54.090Z,19.35
2022-12-05T08:49:21.831Z,23.58
2022-12-05T08:51:49.826Z,21.85
2022-12-05T08:54:18.772Z,21.60
2022-12-05T08:57:09.002Z,21.30
2022-12-05T08:59:37.462Z,23.45
2022-12-05T09:02:17.851Z,23.52
2022-12-05T09:04:54.687Z,19.70
2022-12-05T09:07:28.608Z,23.55
2022-12-05T09:09:58.199Z,21.90
2022-12-05T09:12:27.375Z,20.42
2022-12-05T09:14:54.129Z,24.27
2022-12-05T09:17:24.280Z,24.40
2022-12-05T09:19:53.119Z,24.65
2022-12-05T09:22:20.615Z,26.33
2022-12-05T09:24:51.465Z,23.27
2022-12-05T09:27:19.174Z,24.92
2022-12-05T09:29:47.249Z,23.13
2022-12-05T09:32:15.021Z,22.17
2022-12-05T09:34:45.346Z,18.92
2022-12-05T09:50:14.802Z,18.80
2022-12-05T09:57:04.757Z,19.88
2022-12-05T09:59:36.967Z,25.92
2022-12-05T10:07:21.650Z,23.92
2022-12-05T10:26:40.164Z,17.17
2022-12-05T10:59:52.870Z,21.27
2022-12-05T11:02:38.763Z,18.95
2022-12-05T11:19:14.682Z,14.63
2022-12-05T11:21:49.550Z,16.23
2022-12-05T11:38:09.068Z,19.15
2022-12-05T12:11:50.504Z,14.30
2022-12-05T12:36:08.764Z,15.77
2022-12-05T12:43:30.898Z,18.33
2022-12-05T12:46:37.875Z,28.08
2022-12-05T12:49:23.470Z,17.95
2022-12-05T12:52:14.985Z,19.43
2022-12-05T12:55:23.258Z,18.85
2022-12-05T12:58:22.745Z,16.90
2022-12-05T13:01:06.412Z,16.17
2022-12-05T13:03:40.322Z,16.92
2022-12-05T13:07:39.601Z,19.83
2022-12-05T13:10:44.095Z,16.23
2022-12-05T13:13:31.433Z,14.55
2022-12-05T13:16:09.723Z,15.60
2022-12-05T13:18:41.748Z,12.43
2022-12-05T13:21:12.854Z,14.13
2022-12-05T13:28:37.505Z,12.82
2022-12-05T13:31:08.311Z,14.88
2022-12-05T13:44:53.348Z,13.38
2022-12-05T13:52:14.463Z,11.48
2022-12-05T13:54:57.602Z,13.05
2022-12-05T14:06:45.274Z,14.88
2022-12-05T14:14:13.746Z,12.57
2022-12-05T14:21:46.760Z,12.30
2022-12-05T14:25:42.594Z,12.35
2022-12-05T14:28:19.669Z,13.10
2022-12-05T14:30:58.003Z,15.20
2022-12-05T14:33:30.604Z,13.35
2022-12-05T14:36:07.978Z,12.65
2022-12-05T16:46:38.819Z,10.10
2022-12-05T16:49:34.980Z,9.43
2022-12-05T16:52:09.038Z,9.80
2022-12-05T16:54:36.512Z,9.15
2022-12-05T16:57:04.450Z,9.43
2022-12-05T16:59:37.678Z,11.27
2022-12-05T17:02:10.673Z,9.48
2022-12-05T17:04:38.001Z,10.68
2022-12-05T17:07:05.272Z,11.65
2022-12-05T17:09:33.280Z,9.50
2022-12-05T17:12:13.156Z,10.15
2022-12-05T17:14:39.824Z,11.50
2022-12-05T17:17:14.060Z,10.63
2022-12-05T17:19:41.599Z,9.45
2022-12-05T17:22:08.778Z,9.65
2022-12-05T17:24:36.256Z,10.10
2022-12-05T17:27:02.809Z,9.98
2022-12-05T17:29:34.115Z,10.23
2022-12-05T17:32:03.200Z,10.30
2022-12-05T17:34:30.158Z,9.55
2022-12-05T17:36:57.575Z,9.75
2022-12-05T17:42:59.433Z,10.07
2022-12-05T17:45:26.305Z,9.88
2022-12-05T17:47:52.979Z,9.60
2022-12-05T17:50:22.023Z,9.65
2022-12-05T17:52:51.654Z,10.18
2022-12-05T17:55:22.903Z,10.75
2022-12-05T17:57:50.265Z,11.13
2022-12-05T18:00:18.604Z,12.38
2022-12-05T18:02:46.404Z,11.88
2022-12-05T18:05:15.443Z,11.63
2022-12-05T18:07:44.346Z,13.60
2022-12-05T18:10:16.995Z,12.93
2022-12-05T18:12:43.855Z,11.85
2022-12-05T18:15:11.529Z,12.73
2022-12-05T18:18:20.288Z,12.68
2022-12-05T18:21:13.187Z,13.10
2022-12-05T18:23:40.684Z,10.90
2022-12-05T18:26:09.231Z,13.45
2022-12-05T18:28:38.477Z,15.35
2022-12-05T18:31:09.713Z,14.20
2022-12-05T18:33:39.206Z,17.65
2022-12-05T18:36:08.716Z,16.50
2022-12-05T18:38:36.118Z,15.80
2022-12-05T18:41:04.143Z,15.05
2022-12-05T18:43:32.062Z,14.55
2022-12-05T18:46:00.664Z,13.38
2022-12-05T18:48:39.271Z,13.35
2022-12-05T18:51:13.936Z,11.10
2022-12-05T18:53:41.076Z,10.60
2022-12-05T18:59:13.610Z,7.88
2022-12-05T19:01:43.755Z,8.38
2022-12-05T19:04:13.018Z,11.05
2022-12-05T19:06:43.819Z,13.02
2022-12-05T19:09:13.259Z,11.23
2022-12-05T19:11:47.632Z,10.98
2022-12-05T19:14:15.714Z,11.00
2022-12-05T19:16:43.323Z,13.93
2022-12-05T19:19:13.410Z,14.25
2022-12-05T19:21:40.782Z,14.15
2022-12-05T19:24:08.592Z,11.70
2022-12-05T19:26:36.215Z,10.68
2022-12-05T19:29:03.353Z,10.10
2022-12-05T19:34:00.369Z,9.30
2022-12-05T19:36:33.333Z,9.88
2022-12-05T19:39:00.177Z,9.48
2022-12-05T19:41:29.512Z,10.00
2022-12-05T19:43:59.566Z,10.40
2022-12-05T19:46:30.128Z,8.82
2022-12-05T19:49:00.463Z,8.43
2022-12-05T19:51:27.358Z,11.38
2022-12-05T19:53:54.357Z,11.00
2022-12-05T19:56:23.866Z,11.73
2022-12-05T19:58:52.225Z,10.38
2022-12-05T20:01:21.691Z,11.38
2022-12-05T20:03:53.936Z,9.60
2022-12-05T20:06:22.108Z,10.02
2022-12-05T20:08:52.326Z,13.27
2022-12-05T20:11:22.245Z,14.68
2022-12-05T20:13:49.360Z,13.13
2022-12-05T20:16:18.869Z,11.68
2022-12-05T20:18:46.962Z,9.77
2022-12-05T20:21:17.589Z,11.55
2022-12-05T20:23:45.172Z,11.13
2022-12-05T20:26:15.865Z,9.52
2022-12-05T20:28:43.754Z,8.52
2022-12-05T20:31:12.387Z,12.10
2022-12-05T20:33:39.920Z,10.88
2022-12-05T20:36:10.217Z,11.10
2022-12-05T20:38:37.854Z,10.38
2022-12-05T20:41:11.461Z,12.00
2022-12-05T20:43:38.619Z,13.48
2022-12-05T20:48:34.893Z,9.38
2022-12-05T20:51:17.917Z,9.60
2022-12-05T20:53:45.665Z,8.77
2022-12-05T20:56:16.069Z,10.43
2022-12-05T20:58:50.423Z,10.30
2022-12-05T21:01:19.403Z,10.73
2022-12-05T21:03:51.031Z,9.95
2022-12-05T21:06:19.627Z,8.77
2022-12-05T21:08:46.618Z,8.80
2022-12-05T21:11:13.977Z,11.98
2022-12-05T21:13:41.667Z,8.95
2022-12-05T21:16:12.636Z,9.02
2022-12-05T21:18:40.785Z,9.85
2022-12-05T21:21:14.532Z,8.07
2022-12-05T21:23:46.482Z,9.82
2022-12-05T21:26:16.064Z,10.70
2022-12-05T21:28:44.458Z,9.65
2022-12-05T21:31:14.130Z,8.50
2022-12-05T21:33:42.678Z,9.20
2022-12-05T21:36:10.087Z,9.05
2022-12-05T21:38:37.387Z,10.00
2022-12-05T21:41:05.202Z,8.75
2022-12-05T21:43:34.049Z,9.00
2022-12-05T21:46:00.812Z,8.30
2022-12-05T21:48:28.254Z,8.75
2022-12-05T21:50:54.999Z,7.45
2022-12-05T21:53:22.108Z,6.90
2022-12-05T21:58:15.674Z,7.15
2022-12-05T22:00:42.614Z,8.27
2022-12-05T22:03:14.421Z,8.55
2022-12-05T22:05:41.107Z,9.40
2022-12-05T22:08:08.049Z,8.48
2022-12-05T22:10:35.261Z,8.88
2022-12-05T22:13:02.552Z,8.27
2022-12-05T22:15:29.330Z,8.45
2022-12-05T22:17:55.967Z,8.32
2022-12-05T22:20:22.677Z,8.23
2022-12-05T22:22:49.939Z,7.25
2022-12-05T22:25:17.189Z,8.40
2022-12-05T22:27:43.760Z,7.75
2022-12-05T22:30:10.888Z,7.32
2022-12-05T22:32:38.136Z,8.77
2022-12-05T22:35:04.903Z,8.68
2022-12-05T22:37:31.614Z,7.45
2022-12-05T22:39:58.902Z,6.63
2022-12-05T22:42:26.996Z,7.72
2022-12-05T22:44:53.488Z,7.72
2022-12-05T22:47:20.044Z,9.00
2022-12-05T22:49:47.273Z,9.68
2022-12-05T22:52:14.681Z,8.70
2022-12-05T22:54:41.343Z,8.30
2022-12-05T22:57:07.885Z,7.35
2022-12-05T22:59:34.535Z,7.22
2022-12-05T23:02:01.058Z,9.13
2022-12-05T23:04:27.744Z,8.25
2022-12-05T23:06:54.271Z,8.18
2022-12-05T23:09:21.205Z,7.97
2022-12-05T23:11:50.504Z,6.35
2022-12-05T23:14:17.115Z,6.45
2022-12-05T23:16:44.297Z,6.78
2022-12-05T23:19:11.615Z,6.45
2022-12-05T23:21:39.623Z,8.27
2022-12-05T23:24:11.991Z,7.85
2022-12-05T23:26:44.215Z,7.78
2022-12-05T23:29:12.398Z,8.77
2022-12-05T23:31:40.476Z,9.20
2022-12-05T23:34:07.206Z,7.57
2022-12-05T23:36:34.993Z,6.78
2022-12-05T23:39:02.148Z,8.57
2022-12-05T23:41:28.701Z,9.63
2022-12-05T23:43:55.863Z,8.68
2022-12-05T23:46:25.083Z,8.63
2022-12-05T23:48:51.863Z,7.53
2022-12-05T23:51:24.165Z,9.32
2022-12-05T23:53:58.771Z,7.65
2022-12-05T23:56:31.307Z,8.00
2022-12-05T23:58:58.657Z,9.25
